createdAt,value
2022-12-12T00:00:19.045Z,15.73
2022-12-12T00:03:08.380Z,15.84
2022-12-12T00:05:50.630Z,15.76
2022-12-12T00:08:39.335Z,15.66
2022-12-12T00:11:21.655Z,15.51
2022-12-12T00:14:10.385Z,15.59
2022-12-12T00:16:52.666Z,15.66
2022-12-12T00:19:42.339Z,15.64
2022-12-12T00:22:24.616Z,15.73
2022-12-12T00:25:13.525Z,15.64
2022-12-12T00:28:02.348Z,15.50
2022-12-12T00:30:44.738Z,15.66
2022-12-12T00:33:34.432Z,15.63
2022-12-12T00:36:23.736Z,15.53
2022-12-12T00:39:18.037Z,15.44
2022-12-12T00:42:07.324Z,15.39
2022-12-12T00:44:49.583Z,15.30
2022-12-12T00:47:38.327Z,15.51
2022-12-12T00:50:20.999Z,15.41
2022-12-12T00:53:11.429Z,15.33
2022-12-12T00:56:05.649Z,15.42
2022-12-12T00:58:48.384Z,15.32
2022-12-12T01:01:32.412Z,15.27
2022-12-12T01:04:21.448Z,15.32
2022-12-12T01:07:03.557Z,15.32
2022-12-12T01:09:52.380Z,15.35
2022-12-12T01:12:41.272Z,15.27
2022-12-12T01:15:24.642Z,15.05
2022-12-12T01:18:13.230Z,15.00
2022-12-12T01:20:57.139Z,14.94
2022-12-12T01:23:46.283Z,14.99
2022-12-12T01:26:31.667Z,15.02
2022-12-12T01:29:23.361Z,14.88
2022-12-12T01:32:12.354Z,14.99
2022-12-12T01:34:54.499Z,14.99
2022-12-12T01:37:43.334Z,15.01
2022-12-12T01:40:42.410Z,14.94
2022-12-12T01:43:26.545Z,14.70
2022-12-12T01:46:16.420Z,14.55
2022-12-12T01:49:11.379Z,14.55
2022-12-12T01:52:02.274Z,14.54
2022-12-12T01:54:48.628Z,14.67
2022-12-12T01:57:44.380Z,14.75
2022-12-12T02:00:26.594Z,14.67
2022-12-12T02:03:15.315Z,14.72
2022-12-12T02:06:03.483Z,14.79
2022-12-12T02:08:54.365Z,14.68
2022-12-12T02:11:51.370Z,14.67
2022-12-12T02:14:40.634Z,14.72
2022-12-12T02:17:34.278Z,14.77
2022-12-12T02:21:01.218Z,14.76
2022-12-12T02:24:08.217Z,15.04
2022-12-12T02:27:11.266Z,15.21
2022-12-12T02:30:11.691Z,15.38
2022-12-12T02:33:11.369Z,15.34
2022-12-12T02:36:30.168Z,15.35
2022-12-12T02:39:44.343Z,15.34
2022-12-12T02:42:38.648Z,15.33
2022-12-12T02:45:46.298Z,15.38
2022-12-12T02:48:32.657Z,15.59
2022-12-12T02:51:23.268Z,15.59
2022-12-12T02:54:14.237Z,15.66
2022-12-12T02:57:08.594Z,15.82
2022-12-12T03:00:07.204Z,16.02
2022-12-12T03:03:28.853Z,16.13
2022-12-12T03:06:42.230Z,16.35
2022-12-12T03:10:01.368Z,16.44
2022-12-12T03:13:15.698Z,16.69
2022-12-12T03:16:17.317Z,16.71
2022-12-12T03:19:17.603Z,16.87
2022-12-12T03:22:24.318Z,17.30
2022-12-12T03:25:33.213Z,17.79
2022-12-12T03:28:51.294Z,18.24
2022-12-12T03:31:45.369Z,18.63
2022-12-12T03:34:32.591Z,19.43
2022-12-12T03:37:31.348Z,20.07
2022-12-12T03:40:26.596Z,20.38
2022-12-12T03:43:17.295Z,20.76
2022-12-12T03:46:20.896Z,21.31
2022-12-12T03:49:36.201Z,21.89
2022-12-12T03:52:45.375Z,22.17
2022-12-12T03:56:11.762Z,22.55
2022-12-12T03:59:08.355Z,22.65
2022-12-12T04:02:06.943Z,23.12
2022-12-12T04:05:24.322Z,23.61
2022-12-12T04:08:18.628Z,23.29
2022-12-12T04:11:49.199Z,23.70
2022-12-12T04:14:49.283Z,23.53
2022-12-12T04:18:16.615Z,23.85
2022-12-12T04:21:29.301Z,23.77
2022-12-12T04:24:14.192Z,23.56
2022-12-12T04:27:23.287Z,23.33
2022-12-12T04:30:16.826Z,23.43
2022-12-12T04:33:20.246Z,23.38
2022-12-12T04:36:09.581Z,23.45
2022-12-12T04:38:55.264Z,23.51
2022-12-12T04:41:47.608Z,22.72
2022-12-12T04:44:31.355Z,23.29
2022-12-12T04:47:22.683Z,23.01
2022-12-12T04:50:07.336Z,22.66
2022-12-12T04:52:58.587Z,22.45
2022-12-12T04:55:44.287Z,22.64
2022-12-12T04:58:33.574Z,22.35
2022-12-12T05:01:17.456Z,21.79
2022-12-12T05:04:08.102Z,22.21
2022-12-12T05:07:05.238Z,22.21
2022-12-12T05:09:47.682Z,22.12
2022-12-12T05:12:37.350Z,22.51
2022-12-12T05:15:28.555Z,21.79
2022-12-12T05:18:16.345Z,22.34
2022-12-12T05:20:58.561Z,21.93
2022-12-12T05:23:47.292Z,21.63
2022-12-12T05:26:42.087Z,22.14
2022-12-12T05:29:24.183Z,21.32
2022-12-12T05:32:06.708Z,22.07
2022-12-12T05:34:55.606Z,22.43
2022-12-12T05:37:46.692Z,22.33
2022-12-12T05:40:38.318Z,22.96
2022-12-12T05:43:27.346Z,23.09
2022-12-12T05:46:17.879Z,23.51
2022-12-12T05:49:01.315Z,23.87
2022-12-12T05:51:49.677Z,24.31
2022-12-12T05:54:32.190Z,24.22
2022-12-12T05:57:14.728Z,24.43
2022-12-12T06:00:03.287Z,24.10
2022-12-12T06:02:51.699Z,24.16
2022-12-12T06:05:34.341Z,24.23
2022-12-12T06:08:18.800Z,24.05
2022-12-12T06:11:11.242Z,24.36
2022-12-12T06:14:00.319Z,24.55
2022-12-12T06:16:43.616Z,24.72
2022-12-12T06:19:32.228Z,24.71
2022-12-12T06:22:14.601Z,24.15
2022-12-12T06:25:03.195Z,24.54
2022-12-12T06:27:45.559Z,24.93
2022-12-12T06:30:34.350Z,24.67
2022-12-12T06:33:16.597Z,24.76
2022-12-12T06:36:19.330Z,24.87
2022-12-12T06:39:10.678Z,24.52
2022-12-12T06:41:53.298Z,24.80
2022-12-12T06:44:36.065Z,24.18
2022-12-12T06:47:25.323Z,24.11
2022-12-12T06:50:07.695Z,24.33
2022-12-12T06:52:56.280Z,24.55
2022-12-12T06:55:53.619Z,24.54
2022-12-12T06:58:35.329Z,24.40
2022-12-12T07:01:22.740Z,24.90
2022-12-12T07:04:11.278Z,24.70
2022-12-12T07:06:53.835Z,24.44
2022-12-12T07:09:42.276Z,24.93
2022-12-12T07:12:30.544Z,24.80
2022-12-12T07:15:13.396Z,24.70
2022-12-12T07:18:02.565Z,24.72
2022-12-12T07:20:48.266Z,24.96
2022-12-12T07:23:38.235Z,24.88
2022-12-12T07:26:30.323Z,24.62
2022-12-12T07:29:19.552Z,24.41
2022-12-12T07:32:02.331Z,24.58
2022-12-12T07:34:44.599Z,24.70
2022-12-12T07:37:33.325Z,25.10
2022-12-12T07:40:15.514Z,25.09
2022-12-12T07:43:04.187Z,25.11
2022-12-12T07:45:55.661Z,25.01
2022-12-12T07:48:37.292Z,25.21
2022-12-12T07:51:19.848Z,25.13
2022-12-12T07:54:08.285Z,24.99
2022-12-12T07:56:50.473Z,24.76
2022-12-12T07:59:39.174Z,24.66
2022-12-12T08:02:21.474Z,24.72
2022-12-12T08:05:10.258Z,24.57
2022-12-12T08:07:59.202Z,24.91
2022-12-12T08:10:48.273Z,24.84
2022-12-12T08:13:37.176Z,25.13
2022-12-12T08:16:27.419Z,24.82
2022-12-12T08:19:09.554Z,25.00
2022-12-12T08:22:00.199Z,24.93
2022-12-12T08:24:42.534Z,25.42
2022-12-12T08:27:31.235Z,25.43
2022-12-12T08:30:13.879Z,25.09
2022-12-12T08:33:07.845Z,25.16
2022-12-12T08:35:56.621Z,25.34
2022-12-12T08:38:38.166Z,25.33
2022-12-12T08:41:27.592Z,24.97
2022-12-12T08:44:10.316Z,25.32
2022-12-12T08:46:52.634Z,25.19
2022-12-12T08:49:41.365Z,25.25
2022-12-12T08:52:23.562Z,25.18
2022-12-12T08:55:12.571Z,25.32
2022-12-12T08:58:00.591Z,24.88
2022-12-12T09:00:42.217Z,25.27
2022-12-12T09:03:29.223Z,24.94
2022-12-12T09:06:20.288Z,25.24
2022-12-12T09:09:02.596Z,25.16
2022-12-12T09:11:51.333Z,25.24
2022-12-12T09:14:41.625Z,25.47
2022-12-12T09:17:24.356Z,25.36
2022-12-12T09:20:08.061Z,25.04
2022-12-12T09:22:57.225Z,25.18
2022-12-12T09:25:42.642Z,25.31
2022-12-12T09:28:33.312Z,25.28
2022-12-12T09:31:22.713Z,25.30
2022-12-12T09:34:04.318Z,25.38
2022-12-12T09:36:53.183Z,25.14
2022-12-12T09:39:42.361Z,25.13
2022-12-12T09:42:39.630Z,25.25
2022-12-12T09:45:22.394Z,25.24
2022-12-12T09:48:12.616Z,24.90
2022-12-12T09:50:57.955Z,24.85
2022-12-12T09:53:50.234Z,24.95
2022-12-12T09:56:46.306Z,24.78
2022-12-12T09:59:42.929Z,25.02
2022-12-12T10:02:53.270Z,24.96
2022-12-12T10:06:13.451Z,24.84
2022-12-12T10:09:19.192Z,24.64
2022-12-12T10:12:10.232Z,24.77
2022-12-12T10:15:06.303Z,24.80
2022-12-12T10:17:56.061Z,24.65
2022-12-12T10:20:41.220Z,24.66
2022-12-12T10:23:59.580Z,24.40
2022-12-12T10:26:42.325Z,24.51
2022-12-12T10:29:39.671Z,24.49
2022-12-12T10:32:37.206Z,24.42
2022-12-12T10:35:39.794Z,24.39
2022-12-12T10:38:39.306Z,24.46
2022-12-12T10:41:57.175Z,24.19
2022-12-12T10:45:11.905Z,24.22
2022-12-12T10:47:55.178Z,24.12
2022-12-12T10:50:50.544Z,24.07
2022-12-12T10:53:33.176Z,24.14
2022-12-12T10:56:28.316Z,23.99
2022-12-12T10:59:17.400Z,23.82
2022-12-12T11:02:10.078Z,23.91
2022-12-12T11:05:00.227Z,23.82
2022-12-12T11:07:48.578Z,23.76
2022-12-12T11:10:36.282Z,23.76
2022-12-12T11:13:18.582Z,23.61
2022-12-12T11:16:18.245Z,23.60
2022-12-12T11:19:31.266Z,23.57
2022-12-12T11:22:15.385Z,23.42
2022-12-12T11:25:05.328Z,23.29
2022-12-12T11:27:48.025Z,23.19
2022-12-12T11:30:45.610Z,23.10
2022-12-12T11:33:55.284Z,22.99
2022-12-12T11:36:50.319Z,22.82
2022-12-12T11:40:03.250Z,22.82
2022-12-12T11:42:45.604Z,22.64
2022-12-12T11:45:34.334Z,22.56
2022-12-12T11:48:54.600Z,22.43
2022-12-12T11:51:52.241Z,22.28
2022-12-12T11:54:43.804Z,22.22
2022-12-12T11:58:12.181Z,22.08
2022-12-12T12:01:34.590Z,21.99
2022-12-12T12:04:59.364Z,21.88
2022-12-12T12:08:16.283Z,21.78
2022-12-12T12:11:16.568Z,21.62
2022-12-12T12:14:30.286Z,21.58
2022-12-12T12:17:47.457Z,21.55
2022-12-12T12:21:13.175Z,21.49
2022-12-12T12:24:24.223Z,21.41
2022-12-12T12:27:18.650Z,21.36
2022-12-12T12:30:27.257Z,21.23
2022-12-12T12:33:40.392Z,21.18
2022-12-12T12:36:26.309Z,21.08
2022-12-12T12:39:43.240Z,21.09
2022-12-12T12:42:53.315Z,20.97
2022-12-12T12:45:46.621Z,20.88
2022-12-12T12:48:44.172Z,20.79
2022-12-12T12:51:50.815Z,20.80
2022-12-12T12:54:46.723Z,20.84
2022-12-12T12:57:33.293Z,20.76
2022-12-12T13:00:26.711Z,20.72
2022-12-12T13:03:28.205Z,20.74
2022-12-12T13:06:39.259Z,20.73
2022-12-12T13:10:04.284Z,20.68
2022-12-12T13:13:06.725Z,20.68
2022-12-12T13:16:15.423Z,20.49
2022-12-12T13:19:36.870Z,20.42
2022-12-12T13:22:44.250Z,20.35
2022-12-12T13:25:50.260Z,20.28
2022-12-12T13:29:12.315Z,20.21
2022-12-12T13:32:24.439Z,20.20
2022-12-12T13:35:19.299Z,20.08
2022-12-12T13:38:08.249Z,20.04
2022-12-12T13:41:14.107Z,19.99
2022-12-12T13:44:08.158Z,19.95
2022-12-12T13:46:58.216Z,19.89
2022-12-12T13:50:14.892Z,20.00
2022-12-12T13:53:16.307Z,20.04
2022-12-12T13:56:43.423Z,20.07
2022-12-12T13:59:38.659Z,20.02
2022-12-12T14:02:53.337Z,19.99
2022-12-12T14:05:43.328Z,19.97
2022-12-12T14:08:32.929Z,19.94
2022-12-12T14:11:37.327Z,19.83
2022-12-12T14:14:27.607Z,19.89
2022-12-12T14:17:11.191Z,19.73
2022-12-12T14:20:02.255Z,19.68
2022-12-12T14:22:45.566Z,19.54
2022-12-12T14:25:52.240Z,19.51
2022-12-12T14:28:40.534Z,19.44
2022-12-12T14:31:34.963Z,19.34
2022-12-12T14:34:54.571Z,19.33
2022-12-12T14:38:14.196Z,19.26
2022-12-12T14:41:15.174Z,19.23
2022-12-12T14:44:37.421Z,19.09
2022-12-12T14:47:16.248Z,19.05
2022-12-12T14:50:18.809Z,19.02
2022-12-12T14:53:01.263Z,18.93
2022-12-12T14:56:18.296Z,18.97
2022-12-12T14:59:50.219Z,18.98
2022-12-12T15:02:47.306Z,18.89
2022-12-12T15:05:29.599Z,18.91
2022-12-12T15:08:28.282Z,18.88
2022-12-12T15:11:10.750Z,18.83
2022-12-12T15:14:05.154Z,19.07
2022-12-12T15:16:55.820Z,19.13
2022-12-12T15:20:04.163Z,19.09
2022-12-12T15:23:08.260Z,19.00
2022-12-12T15:26:03.238Z,19.01
2022-12-12T15:28:52.206Z,18.95
2022-12-12T15:31:41.744Z,18.80
2022-12-12T15:35:07.238Z,18.88
2022-12-12T15:38:10.709Z,18.82
2022-12-12T15:41:02.290Z,18.75
2022-12-12T15:43:46.696Z,18.67
2022-12-12T15:46:36.289Z,18.69
2022-12-12T15:50:03.700Z,18.70
2022-12-12T15:52:53.275Z,18.59
2022-12-12T15:55:36.666Z,18.55
2022-12-12T15:58:32.280Z,18.46
2022-12-12T16:01:30.307Z,18.36
2022-12-12T16:04:22.251Z,18.32
2022-12-12T16:07:30.599Z,18.33
2022-12-12T16:10:20.324Z,18.34
2022-12-12T16:13:15.245Z,18.24
2022-12-12T16:16:04.206Z,18.20
2022-12-12T16:18:55.202Z,18.14
2022-12-12T16:21:50.641Z,18.16
2022-12-12T16:24:34.325Z,18.14
2022-12-12T16:27:16.639Z,18.08
2022-12-12T16:30:05.294Z,17.99
2022-12-12T16:32:47.467Z,17.99
2022-12-12T16:35:39.180Z,17.88
2022-12-12T16:38:22.390Z,17.90
2022-12-12T16:41:14.250Z,17.85
2022-12-12T16:44:03.531Z,18.01
2022-12-12T16:46:46.208Z,17.99
2022-12-12T16:49:28.843Z,17.98
2022-12-12T16:52:17.436Z,17.96
2022-12-12T16:55:10.492Z,17.94
2022-12-12T16:58:02.666Z,17.88
2022-12-12T17:00:53.840Z,17.82
2022-12-12T17:03:38.238Z,17.77
2022-12-12T17:06:26.516Z,17.74
2022-12-12T17:09:08.180Z,17.63
2022-12-12T17:11:57.281Z,17.66
2022-12-12T17:14:39.813Z,17.61
2022-12-12T17:17:28.352Z,17.63
2022-12-12T17:20:10.620Z,17.58
2022-12-12T17:26:04.379Z,17.56
2022-12-12T17:28:54.317Z,17.63
2022-12-12T17:31:37.771Z,17.50
2022-12-12T17:34:26.145Z,17.53
2022-12-12T17:37:08.565Z,17.49
2022-12-12T17:39:57.313Z,17.56
2022-12-12T17:42:46.856Z,17.52
2022-12-12T17:45:30.240Z,17.56
2022-12-12T17:48:12.668Z,17.58
2022-12-12T17:51:14.220Z,17.63
2022-12-12T17:54:04.325Z,17.60
2022-12-12T17:56:47.282Z,17.64
2022-12-12T17:59:29.846Z,17.70
2022-12-12T18:02:19.327Z,17.72
2022-12-12T18:05:10.873Z,17.84
2022-12-12T18:07:54.297Z,17.98
2022-12-12T18:10:44.670Z,18.12
2022-12-12T18:13:26.253Z,18.17
2022-12-12T18:16:11.843Z,18.13
2022-12-12T18:19:01.687Z,18.10
2022-12-12T18:22:05.587Z,18.04
2022-12-12T18:24:48.352Z,17.94
2022-12-12T18:27:39.149Z,17.93
2022-12-12T18:30:22.232Z,17.95
2022-12-12T18:33:10.577Z,18.00
2022-12-12T18:35:53.278Z,18.09
2022-12-12T18:38:47.772Z,18.10
2022-12-12T18:41:44.309Z,18.09
2022-12-12T18:44:32.628Z,18.02
2022-12-12T18:47:15.271Z,18.03
2022-12-12T18:50:04.681Z,18.03
2022-12-12T18:52:47.211Z,18.07
2022-12-12T18:55:38.166Z,18.10
2022-12-12T18:58:28.223Z,18.13
2022-12-12T19:01:23.331Z,18.14
2022-12-12T19:04:13.183Z,18.12
2022-12-12T19:07:03.216Z,18.09
2022-12-12T19:09:46.201Z,18.06
2022-12-12T19:12:28.581Z,18.13
2022-12-12T19:15:18.278Z,18.12
2022-12-12T19:18:09.132Z,18.06
2022-12-12T19:20:57.560Z,18.15
2022-12-12T19:23:40.215Z,18.17
2022-12-12T19:26:29.050Z,18.16
2022-12-12T19:29:25.159Z,18.19
2022-12-12T19:32:14.621Z,18.23
2022-12-12T19:34:57.197Z,18.23
2022-12-12T19:37:40.504Z,18.10
2022-12-12T19:40:30.298Z,18.11
2022-12-12T19:43:12.510Z,18.20
2022-12-12T19:46:01.217Z,18.09
2022-12-12T19:48:51.229Z,18.20
2022-12-12T19:51:44.160Z,18.23
2022-12-12T19:54:32.566Z,18.23
2022-12-12T19:57:14.295Z,18.35
2022-12-12T20:00:02.581Z,18.26
2022-12-12T20:02:45.350Z,18.21
2022-12-12T20:05:33.490Z,18.23
2022-12-12T20:08:16.256Z,18.17
2022-12-12T20:11:09.227Z,18.16
2022-12-12T20:14:03.232Z,18.18
2022-12-12T20:16:46.010Z,18.11
2022-12-12T20:19:37.197Z,18.15
2022-12-12T20:22:25.542Z,18.04
2022-12-12T20:25:08.289Z,18.07
2022-12-12T20:27:57.093Z,18.02
2022-12-12T20:30:49.586Z,18.07
2022-12-12T20:33:35.036Z,17.92
2022-12-12T20:36:34.123Z,17.95
2022-12-12T20:39:18.075Z,17.91
2022-12-12T20:42:07.217Z,17.84
2022-12-12T20:44:50.603Z,17.84
2022-12-12T20:47:39.180Z,17.77
2022-12-12T20:50:28.203Z,17.66
2022-12-12T20:53:10.700Z,17.64
2022-12-12T20:55:59.248Z,17.66
2022-12-12T20:58:41.493Z,17.60
2022-12-12T21:01:32.272Z,17.64
2022-12-12T21:04:16.216Z,17.71
2022-12-12T21:07:05.171Z,17.62
2022-12-12T21:09:47.500Z,17.54
2022-12-12T21:12:30.250Z,17.52
2022-12-12T21:15:19.717Z,17.59
2022-12-12T21:18:03.269Z,17.48
2022-12-12T21:20:52.534Z,17.58
2022-12-12T21:23:35.200Z,17.46
2022-12-12T21:26:26.745Z,17.42
2022-12-12T21:29:12.091Z,17.41
2022-12-12T21:31:54.513Z,17.30
2022-12-12T21:34:43.181Z,17.31
2022-12-12T21:37:38.634Z,17.37
2022-12-12T21:40:35.094Z,17.31
2022-12-12T21:43:24.085Z,17.31
2022-12-12T21:46:14.305Z,17.33
2022-12-12T21:49:27.286Z,17.23
2022-12-12T21:52:12.233Z,17.28
2022-12-12T21:55:00.488Z,17.36
2022-12-12T21:57:43.193Z,17.43
2022-12-12T22:00:31.513Z,17.42
2022-12-12T22:03:17.347Z,17.40
2022-12-12T22:05:59.673Z,17.40
2022-12-12T22:08:48.186Z,17.38
2022-12-12T22:11:49.503Z,17.37
2022-12-12T22:14:43.142Z,17.34
2022-12-12T22:17:25.453Z,17.30
2022-12-12T22:20:14.175Z,17.37
2022-12-12T22:23:03.201Z,17.21
2022-12-12T22:25:45.828Z,17.14
2022-12-12T22:28:36.236Z,17.28
2022-12-12T22:31:26.209Z,17.34
2022-12-12T22:34:11.517Z,17.30
2022-12-12T22:37:01.079Z,17.36
2022-12-12T22:39:55.120Z,17.35
2022-12-12T22:42:43.507Z,17.37
2022-12-12T22:45:26.270Z,17.38
2022-12-12T22:48:14.477Z,17.33
2022-12-12T22:50:57.221Z,17.39
2022-12-12T22:53:43.991Z,17.75
2022-12-12T22:56:33.217Z,17.83
2022-12-12T22:59:23.185Z,17.83
2022-12-12T23:02:05.467Z,17.66
2022-12-12T23:04:54.394Z,17.61
2022-12-12T23:07:36.503Z,17.71
2022-12-12T23:10:25.213Z,17.65
2022-12-12T23:13:07.456Z,17.57
2022-12-12T23:15:56.321Z,17.54
2022-12-12T23:18:38.536Z,17.57
2022-12-12T23:21:30.214Z,17.58
2022-12-12T23:24:20.092Z,17.56
2022-12-12T23:27:09.233Z,17.47
2022-12-12T23:29:58.206Z,17.38
2022-12-12T23:32:47.224Z,17.38
2022-12-12T23:35:29.452Z,17.35
2022-12-12T23:38:18.280Z,17.29
2022-12-12T23:41:00.435Z,17.24
2022-12-12T23:43:49.155Z,17.13
2022-12-12T23:46:33.280Z,16.98
2022-12-12T23:49:26.079Z,17.01
2022-12-12T23:52:15.125Z,17.10
2022-12-12T23:55:03.489Z,17.12
2022-12-12T23:57:46.080Z,17.06
